Terminal Aerodrome Forecast
Issued by NWS Springfield, MO

Home | Current Version | Previous Version | Text Only | Print | Product List | Glossary On
Versions: 1 2 3 4 5 6 7 8 9 10 11 12 13 14 15
670
FTUS43 KSGF 062320
TAFSGF
TAF
KSGF 062320Z 0700/0724 22008KT P6SM SKC
     FM070500 19010KT P6SM SCT250
     FM071500 24014G20KT P6SM SCT250
     FM071800 27015G22KT P6SM SCT250=

USA.gov is the U.S. government's official web portal to all federal, state and local government web resources and services.